Elm, Pennsylvania
Current Conditions -  °F | °C
As of 10:53 AM on Thursday 23 Oct 2014 (Local Time) from KLNS Reporting Station
Overcast Overcast  
Wind Chill: 12°   Ceiling: 2800
Heat Index: 12°   Visibility: 10mi
Dew Point:   Wind: 9mph
Humidity: 69%   Direction: 330°NNW
Pressure: 29.85"   Gusts: 22mph
Location:  40.2°N, 76.35°W
Report Text: KLNS 231453Z 33008G19KT 10SM OVC028 12/06 A2985 RMK AO2 SLP109 T01170061 51004
Loading
Personal Weather Stations






























Interactive Weather Map
Tropical Storm Tracking
New forecast layout! Learn more

10-Day Weather Forecast

Advertisements
Track Severe Weather on mobile